createdAt,value
2022-11-29T00:00:30.078Z,55.20
2022-11-29T00:02:56.622Z,55.21
2022-11-29T00:05:23.037Z,55.41
2022-11-29T00:07:49.411Z,54.68
2022-11-29T00:10:15.824Z,55.33
2022-11-29T00:12:42.189Z,55.98
2022-11-29T00:15:08.561Z,56.06
2022-11-29T00:17:34.899Z,55.08
2022-11-29T00:20:01.271Z,55.08
2022-11-29T00:22:27.961Z,55.99
2022-11-29T00:25:02.144Z,55.54
2022-11-29T00:27:28.861Z,55.12
2022-11-29T00:29:55.260Z,56.03
2022-11-29T00:32:21.732Z,56.29
2022-11-29T00:34:48.227Z,56.36
2022-11-29T00:37:14.601Z,55.41
2022-11-29T00:39:40.983Z,55.61
2022-11-29T00:42:08.117Z,54.77
2022-11-29T00:44:34.517Z,55.46
2022-11-29T00:47:00.853Z,55.72
2022-11-29T00:49:27.242Z,55.33
2022-11-29T00:51:53.590Z,54.74
2022-11-29T00:54:19.913Z,54.03
2022-11-29T00:56:46.252Z,55.10
2022-11-29T00:59:12.619Z,55.14
2022-11-29T01:01:39.035Z,55.02
2022-11-29T01:04:05.406Z,53.59
2022-11-29T01:06:31.792Z,53.36
2022-11-29T01:08:58.171Z,53.42
2022-11-29T01:11:24.592Z,53.84
2022-11-29T01:13:50.934Z,54.62
2022-11-29T01:16:17.286Z,55.12
2022-11-29T01:18:43.763Z,55.37
2022-11-29T01:21:10.147Z,54.84
2022-11-29T01:23:36.491Z,55.08
2022-11-29T01:26:02.823Z,55.91
2022-11-29T01:31:13.160Z,52.93
2022-11-29T01:33:39.583Z,51.53
2022-11-29T01:36:05.910Z,51.88
2022-11-29T01:38:32.242Z,51.07
2022-11-29T01:40:58.622Z,50.80
2022-11-29T01:43:25.005Z,50.55
2022-11-29T01:45:51.410Z,50.98
2022-11-29T01:48:17.813Z,50.76
2022-11-29T01:50:44.194Z,50.68
2022-11-29T01:53:10.565Z,50.30
2022-11-29T01:55:36.979Z,51.31
2022-11-29T01:58:12.474Z,51.68
2022-11-29T02:00:38.813Z,50.72
2022-11-29T02:03:05.134Z,50.96
2022-11-29T02:05:31.453Z,51.42
2022-11-29T02:07:57.886Z,51.77
2022-11-29T02:10:24.269Z,51.00
2022-11-29T02:12:50.633Z,50.36
2022-11-29T02:15:17.026Z,50.04
2022-11-29T02:17:43.362Z,51.15
2022-11-29T02:20:09.674Z,51.62
2022-11-29T02:22:36.041Z,51.34
2022-11-29T02:25:02.416Z,52.59
2022-11-29T02:27:28.751Z,52.62
2022-11-29T02:29:55.130Z,52.90
2022-11-29T02:32:21.475Z,51.45
2022-11-29T02:34:47.842Z,52.81
2022-11-29T02:37:14.256Z,52.82
2022-11-29T02:39:40.587Z,52.66
2022-11-29T02:42:06.969Z,53.12
2022-11-29T02:44:33.314Z,52.82
2022-11-29T02:46:59.721Z,51.33
2022-11-29T02:49:26.121Z,51.52
2022-11-29T02:51:52.504Z,51.25
2022-11-29T02:54:18.846Z,50.91
2022-11-29T02:56:45.213Z,50.59
2022-11-29T02:59:11.593Z,51.46
2022-11-29T03:01:37.963Z,51.99
2022-11-29T03:04:04.311Z,51.29
2022-11-29T03:06:30.631Z,51.28
2022-11-29T03:08:57.024Z,51.14
2022-11-29T03:11:23.387Z,50.84
2022-11-29T03:13:49.763Z,51.88
2022-11-29T03:16:16.147Z,52.24
2022-11-29T03:18:42.532Z,51.66
2022-11-29T03:21:08.888Z,50.53
2022-11-29T03:23:35.258Z,51.27
2022-11-29T03:26:01.645Z,51.37
2022-11-29T03:28:28.016Z,50.77
2022-11-29T03:30:54.481Z,50.43
2022-11-29T03:33:20.840Z,51.84
2022-11-29T03:35:47.162Z,52.06
2022-11-29T03:38:13.493Z,53.07
2022-11-29T03:40:39.876Z,51.07
2022-11-29T03:43:06.214Z,51.37
2022-11-29T03:45:32.538Z,51.63
2022-11-29T03:47:58.929Z,52.62
2022-11-29T03:50:25.270Z,51.27
2022-11-29T03:52:51.614Z,50.46
2022-11-29T03:55:17.998Z,50.30
2022-11-29T03:57:44.898Z,50.26
2022-11-29T04:00:11.291Z,51.17
2022-11-29T04:02:37.717Z,51.97
2022-11-29T04:05:04.116Z,52.05
2022-11-29T04:07:30.536Z,49.95
2022-11-29T04:09:56.890Z,49.48
2022-11-29T04:12:23.283Z,49.75
2022-11-29T04:14:49.638Z,49.83
2022-11-29T04:17:15.966Z,50.15
2022-11-29T04:19:42.311Z,50.19
2022-11-29T04:22:08.645Z,51.42
2022-11-29T04:24:34.978Z,52.52
2022-11-29T04:27:01.318Z,53.01
2022-11-29T04:29:27.681Z,52.96
2022-11-29T04:31:54.867Z,52.95
2022-11-29T04:34:21.195Z,52.87
2022-11-29T04:36:47.576Z,52.70
2022-11-29T04:39:13.967Z,53.24
2022-11-29T04:41:40.349Z,53.11
2022-11-29T04:44:06.702Z,52.79
2022-11-29T04:46:33.115Z,52.89
2022-11-29T04:48:59.506Z,52.34
2022-11-29T04:51:25.927Z,52.91
2022-11-29T04:53:52.310Z,52.76
2022-11-29T04:56:18.681Z,52.66
2022-11-29T04:58:45.028Z,52.42
2022-11-29T05:01:11.455Z,52.09
2022-11-29T05:03:37.863Z,53.03
2022-11-29T05:06:04.240Z,52.86
2022-11-29T05:08:30.619Z,53.31
2022-11-29T05:10:56.990Z,54.14
2022-11-29T05:13:23.330Z,52.97
2022-11-29T05:15:49.732Z,52.54
2022-11-29T05:18:16.135Z,52.31
2022-11-29T05:20:42.513Z,52.24
2022-11-29T05:23:08.888Z,52.17
2022-11-29T05:25:35.267Z,51.35
2022-11-29T05:28:04.483Z,51.02
2022-11-29T05:30:34.909Z,50.91
2022-11-29T05:33:01.246Z,52.24
2022-11-29T05:35:27.612Z,52.13
2022-11-29T05:37:54.007Z,52.03
2022-11-29T05:40:20.382Z,52.70
2022-11-29T05:42:46.760Z,53.05
2022-11-29T05:45:13.169Z,51.96
2022-11-29T05:47:39.520Z,51.67
2022-11-29T05:50:05.899Z,52.87
2022-11-29T05:52:32.302Z,52.18
2022-11-29T05:54:58.658Z,53.03
2022-11-29T05:57:24.980Z,52.09
2022-11-29T05:59:51.349Z,51.23
2022-11-29T06:02:17.773Z,51.76
2022-11-29T06:04:44.339Z,51.06
2022-11-29T06:07:10.901Z,51.77
2022-11-29T06:09:37.261Z,51.74
2022-11-29T06:12:03.629Z,51.08
2022-11-29T06:14:29.971Z,51.83
2022-11-29T06:16:56.298Z,51.80
2022-11-29T06:19:22.726Z,52.02
2022-11-29T06:21:49.081Z,52.14
2022-11-29T06:24:15.411Z,51.87
2022-11-29T06:26:41.751Z,52.68
2022-11-29T06:29:08.079Z,52.62
2022-11-29T06:31:34.516Z,51.98
2022-11-29T06:34:00.944Z,52.29
2022-11-29T06:36:27.286Z,53.04
2022-11-29T06:38:53.657Z,52.91
2022-11-29T06:41:20.061Z,52.54
2022-11-29T06:43:46.416Z,52.44
2022-11-29T06:46:13.026Z,53.22
2022-11-29T06:48:39.423Z,53.73
2022-11-29T06:51:05.760Z,54.42
2022-11-29T06:53:32.146Z,54.27
2022-11-29T06:55:58.501Z,54.02
2022-11-29T06:58:24.873Z,53.42
2022-11-29T07:00:51.239Z,52.92
2022-11-29T07:03:17.660Z,53.05
2022-11-29T07:05:44.037Z,52.70
2022-11-29T07:08:10.421Z,52.55
2022-11-29T07:10:36.812Z,52.26
2022-11-29T07:13:03.198Z,52.90
2022-11-29T07:15:29.578Z,52.68
2022-11-29T07:17:55.928Z,52.55
2022-11-29T07:20:22.335Z,52.86
2022-11-29T07:22:48.714Z,52.24
2022-11-29T07:25:15.094Z,53.21
2022-11-29T07:27:41.478Z,52.93
2022-11-29T07:30:07.884Z,53.13
2022-11-29T07:32:34.266Z,53.54
2022-11-29T07:35:00.631Z,54.70
2022-11-29T07:37:27.080Z,54.43
2022-11-29T07:39:53.586Z,52.81
2022-11-29T07:42:19.940Z,52.64
2022-11-29T07:44:46.494Z,52.73
2022-11-29T07:47:16.340Z,51.65
2022-11-29T07:49:42.727Z,52.47
2022-11-29T07:52:09.067Z,52.80
2022-11-29T07:54:35.834Z,53.17
2022-11-29T07:57:02.282Z,53.20
2022-11-29T07:59:28.623Z,53.26
2022-11-29T08:01:55.091Z,52.69
2022-11-29T08:04:21.469Z,52.54
2022-11-29T08:06:47.860Z,52.77
2022-11-29T08:09:14.234Z,52.84
2022-11-29T08:11:40.621Z,52.59
2022-11-29T08:14:06.974Z,52.20
2022-11-29T08:16:33.396Z,52.11
2022-11-29T08:18:59.818Z,53.23
2022-11-29T08:21:26.152Z,53.34
2022-11-29T08:23:52.492Z,53.24
2022-11-29T08:26:18.881Z,51.97
2022-11-29T08:28:45.217Z,52.76
2022-11-29T08:31:11.651Z,52.65
2022-11-29T08:33:38.018Z,52.68
2022-11-29T08:36:04.392Z,52.65
2022-11-29T08:38:30.773Z,52.93
2022-11-29T08:40:57.150Z,52.20
2022-11-29T08:43:23.496Z,51.83
2022-11-29T08:45:49.899Z,52.53
2022-11-29T08:48:16.323Z,52.19
2022-11-29T08:50:42.711Z,52.39
2022-11-29T08:53:09.107Z,52.64
2022-11-29T08:55:35.497Z,52.53
2022-11-29T08:58:01.880Z,52.79
2022-11-29T09:00:28.273Z,52.13
2022-11-29T09:02:54.619Z,52.83
2022-11-29T09:05:20.987Z,52.95
2022-11-29T09:07:47.387Z,53.19
2022-11-29T09:10:13.814Z,53.27
2022-11-29T09:12:40.203Z,53.02
2022-11-29T09:15:06.605Z,51.84
2022-11-29T09:17:32.993Z,53.04
2022-11-29T09:19:59.333Z,53.24
2022-11-29T09:22:25.663Z,53.04
2022-11-29T09:24:52.039Z,53.64
2022-11-29T09:27:18.416Z,53.34
2022-11-29T09:29:44.772Z,53.13
2022-11-29T09:32:11.148Z,53.18
2022-11-29T09:34:37.573Z,52.47
2022-11-29T09:37:03.972Z,52.74
2022-11-29T09:39:30.312Z,53.16
2022-11-29T09:41:56.646Z,53.58
2022-11-29T09:44:22.989Z,53.48
2022-11-29T09:46:52.258Z,53.51
2022-11-29T09:49:22.180Z,53.31
2022-11-29T09:51:48.542Z,52.63
2022-11-29T09:54:14.935Z,53.11
2022-11-29T09:56:41.330Z,53.74
2022-11-29T09:59:07.722Z,53.48
2022-11-29T10:01:34.106Z,53.65
2022-11-29T10:04:00.488Z,53.36
2022-11-29T10:06:26.868Z,52.91
2022-11-29T10:08:53.241Z,51.98
2022-11-29T10:11:19.611Z,51.60
2022-11-29T10:13:45.999Z,52.42
2022-11-29T10:16:12.428Z,53.59
2022-11-29T10:18:38.811Z,52.71
2022-11-29T10:21:05.205Z,53.59
2022-11-29T10:23:31.569Z,53.38
2022-11-29T10:25:57.958Z,54.28
2022-11-29T10:28:24.295Z,53.79
2022-11-29T10:30:50.710Z,54.70
2022-11-29T10:33:17.102Z,53.47
2022-11-29T10:35:43.443Z,53.68
2022-11-29T10:40:56.134Z,53.62
2022-11-29T10:43:22.556Z,53.38
2022-11-29T10:45:50.195Z,53.28
2022-11-29T10:48:16.741Z,53.37
2022-11-29T10:50:43.075Z,54.17
2022-11-29T10:53:09.451Z,53.38
2022-11-29T10:55:35.809Z,52.89
2022-11-29T10:58:02.183Z,52.41
2022-11-29T11:00:28.542Z,51.86
2022-11-29T11:02:56.006Z,50.37
2022-11-29T11:05:22.414Z,49.93
2022-11-29T11:07:48.799Z,50.04
2022-11-29T11:10:15.331Z,51.30
2022-11-29T11:12:41.760Z,50.61
2022-11-29T11:15:08.148Z,49.84
2022-11-29T11:17:34.531Z,50.70
2022-11-29T11:20:00.934Z,50.51
2022-11-29T11:22:27.395Z,50.00
2022-11-29T11:24:53.754Z,49.74
2022-11-29T11:27:20.130Z,51.21
2022-11-29T11:29:46.487Z,49.80
2022-11-29T11:32:12.879Z,50.62
2022-11-29T11:34:39.224Z,50.03
2022-11-29T11:37:05.555Z,52.37
2022-11-29T11:39:31.948Z,51.04
2022-11-29T11:41:58.385Z,50.91
2022-11-29T11:44:58.292Z,50.67
2022-11-29T11:47:11.123Z,51.12
2022-11-29T11:49:37.565Z,50.51
2022-11-29T11:52:03.960Z,51.87
2022-11-29T11:54:30.374Z,50.50
2022-11-29T11:56:56.728Z,50.98
2022-11-29T11:59:23.123Z,50.59
2022-11-29T12:01:49.515Z,49.96
2022-11-29T12:04:15.897Z,50.54
2022-11-29T12:06:42.286Z,51.08
2022-11-29T12:09:08.688Z,49.92
2022-11-29T12:11:35.040Z,50.36
2022-11-29T12:14:01.394Z,50.65
2022-11-29T12:16:27.716Z,50.66
2022-11-29T12:18:54.131Z,50.90
2022-11-29T12:21:20.475Z,50.13
2022-11-29T12:23:46.817Z,51.17
2022-11-29T12:26:19.295Z,51.03
2022-11-29T12:28:59.643Z,50.42
2022-11-29T12:31:26.067Z,51.63
2022-11-29T12:33:52.432Z,50.65
2022-11-29T12:36:18.837Z,51.07
2022-11-29T12:38:45.295Z,51.70
2022-11-29T12:41:11.686Z,51.67
2022-11-29T12:43:38.084Z,52.46
2022-11-29T12:46:04.530Z,51.93
2022-11-29T12:48:30.910Z,51.78
2022-11-29T12:50:57.286Z,52.54
2022-11-29T12:53:27.259Z,53.10
2022-11-29T12:55:54.115Z,52.86
2022-11-29T12:58:20.506Z,51.89
2022-11-29T13:00:46.882Z,52.45
2022-11-29T13:03:13.325Z,52.74
2022-11-29T13:05:39.755Z,51.88
2022-11-29T13:08:06.106Z,52.63
2022-11-29T13:10:32.470Z,52.46
2022-11-29T13:12:58.869Z,51.88
2022-11-29T13:15:25.222Z,52.47
2022-11-29T13:17:51.555Z,51.52
2022-11-29T13:20:17.889Z,52.00
2022-11-29T13:22:44.252Z,51.48
2022-11-29T13:25:10.606Z,51.67
2022-11-29T13:27:36.950Z,51.49
2022-11-29T13:30:03.281Z,51.20
2022-11-29T13:32:29.647Z,50.72
2022-11-29T13:34:55.993Z,51.24
2022-11-29T13:37:22.369Z,52.05
2022-11-29T13:39:48.723Z,52.25
2022-11-29T13:42:15.088Z,53.53
2022-11-29T13:44:41.500Z,53.75
2022-11-29T13:47:07.889Z,54.12
2022-11-29T13:49:34.266Z,54.10
2022-11-29T13:52:00.657Z,55.21
2022-11-29T13:54:27.048Z,54.07
2022-11-29T13:56:53.425Z,53.62
2022-11-29T13:59:19.835Z,52.96
2022-11-29T14:01:46.235Z,54.06
2022-11-29T14:04:12.589Z,53.67
2022-11-29T14:06:38.960Z,54.26
2022-11-29T14:09:20.655Z,53.57
2022-11-29T14:11:47.026Z,55.33
2022-11-29T14:14:13.402Z,54.56
2022-11-29T14:16:39.729Z,54.17
2022-11-29T14:19:06.097Z,54.28
2022-11-29T14:21:32.483Z,54.29
2022-11-29T14:23:58.848Z,54.72
2022-11-29T14:26:28.234Z,54.35
2022-11-29T14:28:55.039Z,55.81
2022-11-29T14:31:21.378Z,55.74
2022-11-29T14:33:47.785Z,56.20
2022-11-29T14:36:14.158Z,56.93
2022-11-29T14:38:40.517Z,57.15
2022-11-29T14:41:06.851Z,56.12
2022-11-29T14:43:33.226Z,55.47
2022-11-29T14:45:59.628Z,55.61
2022-11-29T14:48:25.977Z,54.84
2022-11-29T14:50:52.327Z,55.69
2022-11-29T14:53:18.698Z,55.38
2022-11-29T14:55:45.082Z,54.68
2022-11-29T14:58:11.461Z,55.32
2022-11-29T15:00:37.856Z,55.62
2022-11-29T15:03:04.232Z,55.72
2022-11-29T15:05:30.618Z,55.39
2022-11-29T15:07:56.994Z,54.54
2022-11-29T15:10:23.347Z,54.62
2022-11-29T15:12:49.717Z,54.12
2022-11-29T15:15:16.080Z,54.04
2022-11-29T15:17:42.418Z,53.70
2022-11-29T15:20:08.822Z,54.22
2022-11-29T15:22:35.207Z,54.40
2022-11-29T15:25:01.566Z,53.82
2022-11-29T15:27:27.897Z,54.09
2022-11-29T15:29:54.271Z,54.63
2022-11-29T15:32:20.620Z,54.55
2022-11-29T15:34:47.143Z,54.82
2022-11-29T15:37:13.680Z,54.39
2022-11-29T15:39:40.023Z,54.53
2022-11-29T15:42:06.355Z,53.94
2022-11-29T15:44:32.762Z,54.27
2022-11-29T15:46:59.139Z,55.24
2022-11-29T15:49:25.525Z,55.43
2022-11-29T15:51:51.866Z,56.36
2022-11-29T15:54:18.197Z,55.77
2022-11-29T15:56:44.594Z,54.93
2022-11-29T15:59:10.942Z,55.35
2022-11-29T16:01:37.292Z,54.93
2022-11-29T16:04:03.674Z,55.69
2022-11-29T16:06:30.033Z,55.34
2022-11-29T16:08:56.386Z,55.49
2022-11-29T16:11:25.091Z,56.63
2022-11-29T16:13:51.457Z,56.11
2022-11-29T16:16:17.881Z,55.09
2022-11-29T16:18:44.238Z,55.27
2022-11-29T16:21:10.597Z,56.43
2022-11-29T16:23:36.991Z,56.40
2022-11-29T16:26:03.379Z,55.81
2022-11-29T16:28:29.739Z,56.08
2022-11-29T16:30:56.114Z,56.62
2022-11-29T16:33:22.509Z,56.72
2022-11-29T16:35:48.912Z,56.97
2022-11-29T16:38:15.282Z,57.69
2022-11-29T16:40:41.658Z,56.93
2022-11-29T16:43:08.038Z,57.38
2022-11-29T16:45:34.520Z,57.00
2022-11-29T16:48:00.969Z,56.23
2022-11-29T16:50:27.351Z,57.70
2022-11-29T16:52:56.756Z,57.73
2022-11-29T16:55:23.583Z,57.15
2022-11-29T16:57:50.622Z,56.37
2022-11-29T17:00:17.052Z,55.62
2022-11-29T17:02:43.476Z,55.42
2022-11-29T17:05:09.922Z,55.71
2022-11-29T17:07:36.326Z,55.55
2022-11-29T17:10:02.736Z,55.33
2022-11-29T17:12:29.143Z,55.87
2022-11-29T17:14:55.482Z,54.59
2022-11-29T17:17:21.857Z,54.23
2022-11-29T17:19:48.185Z,54.16
2022-11-29T17:22:14.573Z,54.14
2022-11-29T17:24:46.182Z,53.53
2022-11-29T17:27:14.026Z,52.98
2022-11-29T17:29:40.359Z,53.46
2022-11-29T17:32:06.730Z,53.17
2022-11-29T17:34:33.107Z,53.57
2022-11-29T17:36:59.428Z,53.93
2022-11-29T17:39:25.802Z,54.09
2022-11-29T17:41:52.153Z,54.82
2022-11-29T17:44:18.490Z,56.97
2022-11-29T17:46:44.848Z,56.72
2022-11-29T17:49:11.188Z,57.43
2022-11-29T17:51:53.599Z,57.87
2022-11-29T17:54:20.336Z,57.48
2022-11-29T17:56:46.847Z,59.44
2022-11-29T17:59:13.184Z,58.49
2022-11-29T18:01:39.601Z,58.03
2022-11-29T18:04:05.999Z,57.80
2022-11-29T18:06:32.338Z,59.14
2022-11-29T18:08:58.675Z,59.94
2022-11-29T18:11:25.058Z,59.82
2022-11-29T18:13:51.451Z,59.93
2022-11-29T18:16:17.885Z,60.69
2022-11-29T18:18:44.285Z,60.88
2022-11-29T18:21:10.628Z,61.66
2022-11-29T18:23:37.029Z,61.38
2022-11-29T18:26:03.351Z,61.44
2022-11-29T18:28:29.687Z,61.22
2022-11-29T18:30:56.079Z,61.29
2022-11-29T18:33:22.419Z,61.14
2022-11-29T18:35:48.749Z,61.53
2022-11-29T18:38:16.324Z,61.20
2022-11-29T18:40:42.970Z,60.25
2022-11-29T18:43:09.317Z,60.38
2022-11-29T18:45:35.653Z,61.25
2022-11-29T18:48:01.987Z,60.71
2022-11-29T18:50:28.421Z,60.02
2022-11-29T18:52:54.797Z,58.63
2022-11-29T18:55:21.138Z,58.86
2022-11-29T18:57:47.515Z,58.26
2022-11-29T19:00:13.876Z,57.96
2022-11-29T19:02:40.345Z,57.62
2022-11-29T19:05:06.771Z,57.72
2022-11-29T19:07:33.207Z,57.34
2022-11-29T19:09:59.686Z,57.35
2022-11-29T19:12:26.068Z,57.67
2022-11-29T19:14:52.617Z,58.15
2022-11-29T19:17:19.220Z,57.29
2022-11-29T19:19:45.775Z,57.84
2022-11-29T19:22:12.267Z,58.66
2022-11-29T19:24:38.645Z,58.28
2022-11-29T19:27:05.012Z,58.21
2022-11-29T19:29:35.216Z,58.37
2022-11-29T19:32:04.767Z,58.20
2022-11-29T19:34:31.151Z,57.59
2022-11-29T19:36:57.516Z,57.63
2022-11-29T19:39:23.867Z,58.85
2022-11-29T19:41:50.232Z,58.93
2022-11-29T19:44:16.629Z,59.45
2022-11-29T19:46:42.971Z,59.39
2022-11-29T19:49:09.299Z,59.82
2022-11-29T19:51:35.855Z,59.68
2022-11-29T19:54:02.296Z,58.98
2022-11-29T19:56:28.631Z,58.17
2022-11-29T19:58:54.999Z,59.21
2022-11-29T20:01:21.440Z,59.08
2022-11-29T20:03:47.854Z,58.71
2022-11-29T20:06:14.383Z,58.61
2022-11-29T20:08:40.722Z,58.86
2022-11-29T20:11:07.053Z,58.19
2022-11-29T20:13:33.377Z,58.13
2022-11-29T20:15:59.726Z,57.33
2022-11-29T20:18:26.058Z,57.70
2022-11-29T20:20:52.520Z,57.96
2022-11-29T20:23:18.913Z,58.31
2022-11-29T20:25:45.260Z,59.08
2022-11-29T20:28:11.650Z,58.03
2022-11-29T20:30:38.025Z,58.13
2022-11-29T20:33:04.370Z,57.75
2022-11-29T20:35:30.756Z,58.04
2022-11-29T20:37:57.149Z,57.80
2022-11-29T20:40:23.482Z,58.04
2022-11-29T20:42:49.854Z,58.03
2022-11-29T20:45:16.242Z,58.54
2022-11-29T20:47:42.575Z,59.17
2022-11-29T20:50:08.905Z,59.59
2022-11-29T20:52:35.254Z,59.22
2022-11-29T20:55:01.585Z,57.89
2022-11-29T20:57:27.916Z,58.81
2022-11-29T20:59:54.284Z,58.09
2022-11-29T21:02:20.671Z,58.68
2022-11-29T21:04:47.223Z,57.90
2022-11-29T21:07:13.889Z,58.33
2022-11-29T21:09:40.227Z,59.48
2022-11-29T21:12:06.582Z,60.10
2022-11-29T21:14:32.920Z,60.35
2022-11-29T21:16:59.271Z,60.40
2022-11-29T21:19:25.641Z,59.56
2022-11-29T21:21:51.984Z,60.20
2022-11-29T21:24:18.368Z,60.12
2022-11-29T21:26:44.745Z,59.54
2022-11-29T21:29:11.158Z,59.58
2022-11-29T21:31:37.586Z,60.15
2022-11-29T21:34:03.983Z,59.51
2022-11-29T21:36:30.401Z,59.36
2022-11-29T21:38:59.730Z,58.79
2022-11-29T21:41:28.561Z,58.95
2022-11-29T21:44:10.238Z,60.24
2022-11-29T21:46:36.700Z,60.33
2022-11-29T21:49:03.174Z,59.39
2022-11-29T21:51:29.520Z,59.54
2022-11-29T21:53:55.952Z,58.59
2022-11-29T21:56:22.370Z,57.55
2022-11-29T21:58:48.813Z,58.06
2022-11-29T22:01:15.315Z,57.66
2022-11-29T22:03:41.973Z,58.78
2022-11-29T22:06:08.357Z,59.41
2022-11-29T22:08:34.749Z,59.50
2022-11-29T22:11:01.103Z,59.88
2022-11-29T22:13:27.438Z,59.71
2022-11-29T22:15:53.867Z,59.99
2022-11-29T22:18:20.288Z,60.59
2022-11-29T22:20:46.628Z,61.20
2022-11-29T22:23:12.963Z,60.80
2022-11-29T22:25:39.303Z,60.79
2022-11-29T22:28:05.652Z,60.60
2022-11-29T22:30:32.030Z,61.02
2022-11-29T22:32:58.370Z,62.79
2022-11-29T22:35:24.753Z,62.82
2022-11-29T22:37:51.128Z,62.71
2022-11-29T22:40:17.527Z,62.90
2022-11-29T22:42:43.915Z,63.16
2022-11-29T22:45:10.304Z,62.37
2022-11-29T22:47:36.694Z,63.72
2022-11-29T22:50:03.036Z,62.60
2022-11-29T22:52:29.512Z,63.27
2022-11-29T22:54:59.915Z,63.23
2022-11-29T22:57:29.355Z,62.28
2022-11-29T22:59:55.692Z,61.20
2022-11-29T23:02:22.121Z,60.77
2022-11-29T23:04:48.806Z,60.36
2022-11-29T23:07:15.357Z,60.51
2022-11-29T23:09:41.708Z,61.26
2022-11-29T23:12:08.031Z,59.63
2022-11-29T23:14:34.367Z,59.91
2022-11-29T23:17:00.734Z,61.24
2022-11-29T23:19:27.111Z,60.83
2022-11-29T23:21:53.447Z,60.93
2022-11-29T23:24:19.783Z,60.26
2022-11-29T23:26:46.149Z,60.41
2022-11-29T23:29:12.598Z,59.82
2022-11-29T23:31:39.029Z,59.87
2022-11-29T23:34:05.480Z,61.10
2022-11-29T23:36:31.935Z,60.63
2022-11-29T23:38:58.360Z,60.67
2022-11-29T23:41:24.743Z,61.16
2022-11-29T23:43:51.129Z,61.62
2022-11-29T23:46:17.567Z,60.75
2022-11-29T23:48:44.026Z,60.49
2022-11-29T23:51:10.413Z,60.14
2022-11-29T23:53:36.774Z,59.23
2022-11-29T23:56:03.102Z,59.51
2022-11-29T23:58:29.475Z,59.87
